Time;durP1;ratioP1;P1;durP2;ratioP2;P2;SDS_P1;SDS_P2;PMS_P1;PMS_P2;Temp;Humidity;BMP_temperature;BMP_pressure;BME280_temperature;BME280_humidity;BME280_pressure;Samples;Min_cycle;Max_cycle;Signal;HPM_P1;HPM_P2
2021/04/11 00:02:01;;;;;;;14.70;10.60;;;3.30;96.90;;;;;;5039142;28;20052;-75
2021/04/11 00:04:27;;;;;;;15.97;10.07;;;3.30;96.60;;;;;;5036942;28;20045;-75
2021/04/11 00:06:53;;;;;;;13.73;10.57;;;3.30;96.70;;;;;;5031239;28;20483;-75
2021/04/11 00:09:19;;;;;;;16.93;10.97;;;3.30;96.70;;;;;;5011915;28;20043;-75
2021/04/11 00:11:45;;;;;;;15.87;10.70;;;3.30;96.80;;;;;;5022371;28;20495;-75
2021/04/11 00:14:11;;;;;;;16.50;10.73;;;3.30;96.80;;;;;;5046719;28;20045;-75
2021/04/11 00:16:40;;;;;;;19.37;12.23;;;3.30;96.90;;;;;;5042753;28;20040;-75
2021/04/11 00:19:06;;;;;;;16.90;12.00;;;3.30;96.90;;;;;;5033215;28;20038;-74
2021/04/11 00:21:32;;;;;;;16.90;13.07;;;3.30;96.90;;;;;;5039627;28;20120;-75
2021/04/11 00:23:58;;;;;;;18.07;11.07;;;3.40;96.90;;;;;;5033768;28;20474;-75
2021/04/11 00:26:24;;;;;;;14.67;11.17;;;3.30;97.20;;;;;;5018209;28;20043;-74
2021/04/11 00:28:56;;;;;;;17.03;11.67;;;3.40;96.80;;;;;;5011759;28;20480;-75
2021/04/11 00:31:28;;;;;;;14.77;10.80;;;3.40;96.80;;;;;;5030342;28;20052;-74
2021/04/11 00:33:53;;;;;;;15.57;10.70;;;3.40;96.80;;;;;;5026374;28;20366;-72
2021/04/11 00:36:20;;;;;;;14.33;10.17;;;3.50;96.40;;;;;;5027770;28;20424;-71
2021/04/11 00:38:46;;;;;;;14.30;11.13;;;3.60;96.50;;;;;;5003513;28;20046;-72
2021/04/11 00:41:17;;;;;;;16.50;10.77;;;3.60;96.10;;;;;;5024807;28;20144;-72
2021/04/11 00:43:44;;;;;;;17.00;11.50;;;3.60;96.40;;;;;;5041936;28;20132;-72
2021/04/11 00:46:35;;;;;;;15.30;9.60;;;3.60;96.40;;;;;;5011400;28;20037;-73
2021/04/11 00:49:03;;;;;;;12.48;9.75;;;3.50;96.60;;;;;;5037190;28;20037;-75
2021/04/11 00:51:31;;;;;;;14.13;10.30;;;3.50;96.70;;;;;;5033669;28;20081;-74
2021/04/11 00:53:59;;;;;;;14.07;10.63;;;3.50;96.60;;;;;;5037951;28;20041;-75
2021/04/11 00:56:29;;;;;;;13.23;10.10;;;3.50;96.70;;;;;;5040778;28;20043;-74
2021/04/11 00:58:55;;;;;;;14.23;9.73;;;3.50;96.80;;;;;;5027028;28;20041;-74
2021/04/11 01:01:21;;;;;;;12.70;10.60;;;3.60;96.80;;;;;;5028746;28;20048;-74
2021/04/11 01:03:49;;;;;;;15.50;10.60;;;3.50;96.80;;;;;;5030675;28;20046;-74
2021/04/11 01:06:21;;;;;;;13.67;10.57;;;3.50;96.80;;;;;;5032293;28;20077;-74
2021/04/11 01:08:49;;;;;;;;;;;3.50;96.80;;;;;;5045113;28;20995;-74
2021/04/11 01:11:17;;;;;;;12.37;9.77;;;3.60;96.80;;;;;;5024808;28;19924;-75
2021/04/11 01:13:53;;;;;;;13.00;10.40;;;3.60;96.70;;;;;;5038567;28;20559;-74
2021/04/11 01:16:20;;;;;;;12.60;9.73;;;3.60;96.70;;;;;;5033124;28;20045;-74
2021/04/11 01:18:47;;;;;;;14.47;10.90;;;3.60;96.80;;;;;;5036572;28;20481;-74
2021/04/11 01:21:33;;;;;;;15.50;10.83;;;3.60;96.80;;;;;;5037678;28;20311;-74
2021/04/11 01:24:12;;;;;;;15.53;11.40;;;3.60;96.90;;;;;;5012373;28;20037;-74
2021/04/11 01:26:39;;;;;;;14.77;10.80;;;3.60;97.00;;;;;;5032045;28;20500;-74
2021/04/11 01:29:07;;;;;;;15.23;10.47;;;3.60;97.00;;;;;;5020324;28;20488;-75
2021/04/11 01:31:33;;;;;;;13.50;10.40;;;3.60;97.00;;;;;;5039234;28;20033;-74
2021/04/11 01:34:00;;;;;;;14.80;10.50;;;3.70;97.00;;;;;;5034633;28;20073;-74
2021/04/11 01:36:29;;;;;;;14.87;10.07;;;3.80;97.10;;;;;;5038323;28;20076;-74
2021/04/11 01:39:08;;;;;;;16.20;10.40;;;3.80;97.00;;;;;;5026617;28;20400;-74
2021/04/11 01:41:42;;;;;;;11.03;9.30;;;3.60;96.90;;;;;;5038429;28;20064;-74
2021/04/11 01:44:12;;;;;;;12.67;9.07;;;3.70;97.00;;;;;;5038725;28;20041;-74
2021/04/11 01:46:38;;;;;;;12.20;8.67;;;3.70;97.10;;;;;;5038914;28;20056;-75
2021/04/11 01:49:04;;;;;;;11.10;8.13;;;3.80;97.00;;;;;;5032934;28;20049;-74
2021/04/11 01:51:53;;;;;;;12.40;7.83;;;3.80;97.00;;;;;;5035506;28;20046;-73
2021/04/11 01:54:22;;;;;;;10.43;7.77;;;3.80;96.90;;;;;;5022931;28;20065;-73
2021/04/11 01:56:49;;;;;;;11.23;6.87;;;3.80;96.90;;;;;;5035267;28;20048;-74
2021/04/11 01:59:22;;;;;;;10.50;7.40;;;3.80;96.80;;;;;;5038145;28;20053;-71
2021/04/11 02:01:49;;;;;;;8.43;7.50;;;3.80;96.70;;;;;;5034664;28;20152;-71
2021/04/11 02:04:15;;;;;;;10.40;7.40;;;3.80;96.60;;;;;;5039273;28;20041;-73
2021/04/11 02:06:57;;;;;;;10.60;8.67;;;3.80;96.70;;;;;;5024125;28;20045;-72
2021/04/11 02:09:32;;;;;;;11.50;8.63;;;3.70;96.80;;;;;;5031312;28;20045;-72
2021/04/11 02:11:59;;;;;;;11.77;8.67;;;3.70;96.90;;;;;;5032479;28;20038;-72
2021/04/11 02:14:27;;;;;;;10.87;8.40;;;3.70;97.00;;;;;;5037238;28;20396;-72
2021/04/11 02:16:55;;;;;;;10.00;8.40;;;3.60;97.00;;;;;;5021714;28;20051;-72
2021/04/11 02:19:24;;;;;;;12.17;10.40;;;3.70;97.10;;;;;;5038530;28;20041;-73
2021/04/11 02:22:15;;;;;;;12.33;9.83;;;3.80;97.00;;;;;;5030987;28;20049;-73
2021/04/11 02:24:44;;;;;;;13.05;8.55;;;3.80;96.80;;;;;;5029910;28;20059;-73
2021/04/11 02:27:14;;;;;;;13.90;10.15;;;3.70;96.90;;;;;;5041352;28;20045;-72
2021/04/11 02:29:40;;;;;;;14.83;9.17;;;3.60;97.00;;;;;;5032043;28;20037;-73
2021/04/11 02:32:09;;;;;;;11.17;8.10;;;3.70;97.00;;;;;;5035436;28;20068;-73
2021/04/11 02:34:35;;;;;;;9.40;7.60;;;3.70;97.10;;;;;;5025837;28;20055;-72
2021/04/11 02:37:10;;;;;;;9.97;7.37;;;3.70;97.20;;;;;;5033393;28;20044;-72
2021/04/11 02:39:39;;;;;;;12.37;7.60;;;3.60;97.20;;;;;;5028202;28;20454;-73
2021/04/11 02:42:18;;;;;;;7.83;5.60;;;3.60;97.20;;;;;;5021753;28;20042;-72
2021/04/11 02:44:49;;;;;;;7.80;5.60;;;3.70;97.20;;;;;;5026404;28;20037;-72
2021/04/11 02:47:16;;;;;;;9.63;5.07;;;3.70;97.10;;;;;;5025662;28;20037;-73
2021/04/11 02:49:49;;;;;;;8.00;5.77;;;3.70;97.10;;;;;;5033317;28;20057;-73
2021/04/11 02:52:27;;;;;;;7.83;5.40;;;3.70;97.10;;;;;;5037839;28;20488;-73
2021/04/11 02:54:54;;;;;;;9.60;5.80;;;3.70;97.20;;;;;;5029210;28;20051;-75
2021/04/11 02:57:21;;;;;;;8.33;5.20;;;3.70;97.20;;;;;;5038299;28;20046;-75
2021/04/11 02:59:50;;;;;;;7.80;5.07;;;3.60;97.20;;;;;;5039983;28;20120;-76
2021/04/11 03:02:16;;;;;;;6.90;5.07;;;3.60;97.40;;;;;;5038591;28;20154;-73
2021/04/11 03:04:46;;;;;;;9.50;5.43;;;3.50;97.40;;;;;;5038833;28;20618;-73
2021/04/11 03:07:42;;;;;;;9.18;5.53;;;3.60;97.40;;;;;;5014263;28;20128;-73
2021/04/11 03:10:38;;;;;;;6.77;5.40;;;3.70;97.40;;;;;;5035399;28;20096;-73
2021/04/11 03:13:05;;;;;;;8.70;6.07;;;3.60;97.20;;;;;;5009596;28;20045;-74
2021/04/11 03:15:31;;;;;;;7.33;5.30;;;3.60;97.30;;;;;;5043539;28;20037;-76
2021/04/11 03:17:57;;;;;;;7.13;5.80;;;3.60;97.40;;;;;;5031773;28;20053;-76
2021/04/11 03:20:31;;;;;;;7.93;5.47;;;3.70;97.40;;;;;;5029504;28;20056;-74
2021/04/11 03:22:58;;;;;;;6.97;4.00;;;3.60;97.40;;;;;;5039816;28;20270;-74
2021/04/11 03:25:26;;;;;;;6.77;5.10;;;3.70;97.50;;;;;;5038122;28;20038;-76
2021/04/11 03:28:17;;;;;;;6.50;3.90;;;3.70;97.40;;;;;;5035804;28;20045;-76
2021/04/11 03:30:55;;;;;;;4.35;3.58;;;3.60;97.40;;;;;;5034385;28;20053;-76
2021/04/11 03:33:24;;;;;;;5.63;3.73;;;3.60;97.30;;;;;;5034933;28;20037;-76
2021/04/11 03:35:52;;;;;;;4.70;3.40;;;3.60;97.30;;;;;;5034165;28;20091;-76
2021/04/11 03:38:23;;;;;;;5.20;3.77;;;3.60;97.20;;;;;;5038732;28;20060;-76
2021/04/11 03:40:52;;;;;;;6.03;4.17;;;3.60;97.20;;;;;;5024346;28;20051;-75
2021/04/11 03:43:29;;;;;;;6.43;4.30;;;3.70;97.00;;;;;;5039013;28;20382;-74
2021/04/11 03:45:58;;;;;;;6.43;4.03;;;3.60;97.00;;;;;;5033794;28;20061;-74
2021/04/11 03:48:35;;;;;;;6.13;4.40;;;3.70;97.20;;;;;;5033447;28;20064;-74
2021/04/11 03:51:27;;;;;;;9.17;4.83;;;3.70;97.20;;;;;;5030686;28;20041;-75
2021/04/11 03:53:56;;;;;;;6.57;3.97;;;3.70;97.30;;;;;;5042721;28;20037;-75
2021/04/11 03:56:27;;;;;;;6.43;4.10;;;3.70;97.30;;;;;;5032342;28;20044;-72
2021/04/11 03:59:00;;;;;;;5.73;3.73;;;3.60;97.40;;;;;;5038383;28;20059;-72
2021/04/11 04:01:35;;;;;;;7.57;4.47;;;3.60;97.30;;;;;;5024563;28;20159;-72
2021/04/11 04:04:05;;;;;;;5.43;3.73;;;3.60;97.40;;;;;;5019150;28;20057;-75
2021/04/11 04:06:34;;;;;;;5.13;3.70;;;3.60;97.40;;;;;;5027626;28;20461;-75
2021/04/11 04:09:05;;;;;;;5.43;3.87;;;3.60;97.50;;;;;;5020247;28;20048;-74
2021/04/11 04:11:42;;;;;;;5.57;4.05;;;3.50;97.30;;;;;;5026308;28;20044;-74
2021/04/11 04:14:20;;;;;;;6.90;4.00;;;3.50;97.40;;;;;;5020051;28;20049;-75
2021/04/11 04:17:19;;;;;;;6.83;4.60;;;3.50;97.20;;;;;;5025726;28;20100;-75
2021/04/11 04:20:24;;;;;;;7.63;4.87;;;3.50;97.30;;;;;;5015365;28;20054;-75
2021/04/11 04:23:04;;;;;;;6.33;4.27;;;3.50;97.50;;;;;;5014264;28;20455;-75
2021/04/11 04:25:50;;;;;;;6.43;4.23;;;3.40;97.50;;;;;;5009646;28;20477;-74
2021/04/11 04:28:16;;;;;;;6.80;4.43;;;3.50;97.60;;;;;;5019968;28;20369;-75
2021/04/11 04:31:02;;;;;;;7.07;5.37;;;3.50;97.40;;;;;;5024796;28;20048;-75
2021/04/11 04:33:57;;;;;;;8.40;5.47;;;3.50;97.30;;;;;;5012767;28;20038;-75
2021/04/11 04:36:38;;;;;;;8.87;6.33;;;3.50;97.30;;;;;;5024783;28;20048;-75
2021/04/11 04:39:29;;;;;;;7.30;5.37;;;3.40;97.40;;;;;;5007468;28;20042;-74
2021/04/11 04:42:15;;;;;;;;;;;3.50;97.60;;;;;;5016133;28;20143;-74
2021/04/11 04:44:57;;;;;;;7.47;6.50;;;3.60;97.00;;;;;;4995868;28;20022;-74
2021/04/11 04:47:52;;;;;;;10.57;7.47;;;3.60;97.10;;;;;;5013103;28;20069;-74
2021/04/11 04:50:27;;;;;;;9.63;6.97;;;3.60;97.10;;;;;;4946216;28;20105;-74
2021/04/11 04:53:02;;;;;;;7.20;6.40;;;3.50;97.40;;;;;;5019652;28;20038;-74
2021/04/11 04:55:31;;;;;;;12.33;7.13;;;3.50;97.50;;;;;;5014525;28;20045;-75
2021/04/11 04:58:16;;;;;;;11.55;6.40;;;3.50;97.30;;;;;;5019793;28;20038;-74
2021/04/11 05:00:51;;;;;;;10.13;6.07;;;3.50;97.40;;;;;;5007845;28;20068;-74
2021/04/11 05:03:37;;;;;;;8.93;7.03;;;3.40;97.60;;;;;;5018002;28;20493;-74
2021/04/11 05:06:13;;;;;;;12.83;6.13;;;3.50;98.10;;;;;;5015796;28;20029;-74
2021/04/11 05:08:48;;;;;;;8.33;6.03;;;3.50;97.70;;;;;;5006334;28;20045;-74
2021/04/11 05:11:29;;;;;;;8.63;6.10;;;3.40;97.80;;;;;;5009117;28;20473;-74
2021/04/11 05:14:04;;;;;;;11.05;6.78;;;3.40;98.00;;;;;;5009914;28;20049;-74
2021/04/11 05:16:54;;;;;;;7.53;5.97;;;3.40;98.10;;;;;;5017735;28;20563;-75
2021/04/11 05:19:24;;;;;;;10.38;6.38;;;3.50;98.10;;;;;;5004607;28;20417;-74
2021/04/11 05:21:58;;;;;;;11.90;5.57;;;3.50;98.20;;;;;;5016310;28;20042;-75
2021/04/11 05:24:45;;;;;;;8.10;5.47;;;3.50;98.10;;;;;;5008194;28;20477;-74
2021/04/11 05:27:27;;;;;;;9.20;5.67;;;3.50;98.10;;;;;;5015991;28;20045;-75
2021/04/11 05:30:11;;;;;;;8.87;5.00;;;3.50;98.20;;;;;;5012794;28;20092;-75
2021/04/11 05:32:38;;;;;;;6.30;4.30;;;3.50;98.30;;;;;;5006355;28;20065;-74
2021/04/11 05:35:05;;;;;;;5.90;3.83;;;3.60;98.00;;;;;;5017861;28;20038;-74
2021/04/11 05:38:05;;;;;;;6.63;3.43;;;3.60;98.00;;;;;;5015970;28;20060;-75
2021/04/11 05:40:38;;;;;;;9.70;3.30;;;3.50;98.00;;;;;;5029512;28;20033;-74
2021/04/11 05:43:09;;;;;;;4.67;2.60;;;3.60;98.30;;;;;;5011730;28;20334;-73
2021/04/11 05:46:07;;;;;;;7.30;2.90;;;3.60;97.80;;;;;;5018407;28;20037;-73
2021/04/11 05:48:54;;;;;;;5.03;2.90;;;3.70;97.40;;;;;;5020063;28;20128;-74
2021/04/11 05:51:35;;;;;;;7.30;3.20;;;3.70;96.90;;;;;;5015568;28;20037;-73
2021/04/11 05:54:33;;;;;;;4.60;2.50;;;3.50;97.40;;;;;;5017327;28;20172;-74
2021/04/11 05:57:27;;;;;;;5.10;3.03;;;3.60;97.30;;;;;;5019805;28;20128;-74
2021/04/11 06:00:12;;;;;;;4.70;2.77;;;3.60;97.70;;;;;;5014489;28;21973;-73
2021/04/11 06:02:46;;;;;;;5.37;3.40;;;3.50;97.50;;;;;;5010195;28;20479;-74
2021/04/11 06:05:17;;;;;;;4.87;3.20;;;3.60;97.40;;;;;;5013936;28;20053;-74
2021/04/11 06:08:14;;;;;;;6.70;3.47;;;3.50;97.30;;;;;;5017881;28;20068;-73
2021/04/11 06:11:15;;;;;;;6.70;3.50;;;3.50;97.60;;;;;;5018707;28;20048;-74
2021/04/11 06:13:51;;;;;;;6.87;3.77;;;3.60;97.10;;;;;;4994465;28;20065;-74
2021/04/11 06:16:21;;;;;;;6.10;3.70;;;3.60;97.20;;;;;;5017555;28;20044;-74
2021/04/11 06:18:52;;;;;;;3.83;2.83;;;3.60;97.40;;;;;;5014821;28;20111;-74
2021/04/11 06:21:32;;;;;;;7.47;3.93;;;3.60;97.50;;;;;;5014699;28;20033;-74
2021/04/11 06:24:38;;;;;;;8.13;3.67;;;3.60;97.50;;;;;;5017927;28;20038;-74
2021/04/11 06:27:36;;;;;;;5.40;3.47;;;3.80;96.90;;;;;;5032661;28;20488;-73
2021/04/11 06:30:15;;;;;;;6.97;3.60;;;3.80;96.60;;;;;;5003375;28;20050;-74
2021/04/11 06:33:14;;;;;;;6.50;3.73;;;3.80;96.90;;;;;;5020454;28;20041;-74
2021/04/11 06:35:53;;;;;;;6.20;3.70;;;3.70;96.90;;;;;;5016058;28;20049;-73
2021/04/11 06:38:24;;;;;;;7.83;3.60;;;3.80;97.00;;;;;;5023357;28;20050;-73
2021/04/11 06:41:15;;;;;;;8.70;4.35;;;3.80;96.90;;;;;;5017933;28;20049;-74
2021/04/11 06:43:56;;;;;;;6.20;3.23;;;3.80;97.10;;;;;;5006566;28;20137;-73
2021/04/11 06:46:53;;;;;;;6.73;3.60;;;3.90;96.30;;;;;;5007170;28;20044;-73
2021/04/11 06:49:57;;;;;;;8.33;3.47;;;3.80;96.70;;;;;;5018159;28;20481;-73
2021/04/11 06:52:50;;;;;;;5.87;3.13;;;3.80;96.50;;;;;;5021921;28;20069;-74
2021/04/11 06:55:41;;;;;;;4.63;2.90;;;3.80;96.70;;;;;;5018165;28;20048;-74
2021/04/11 06:58:30;;;;;;;5.28;3.13;;;3.90;96.40;;;;;;5010239;28;20050;-73
2021/04/11 07:01:19;;;;;;;5.67;2.77;;;3.90;96.40;;;;;;5016418;28;20135;-74
2021/04/11 07:04:07;;;;;;;8.13;2.90;;;3.90;96.20;;;;;;5025895;28;20065;-74
2021/04/11 07:06:45;;;;;;;7.57;2.47;;;3.90;96.10;;;;;;5019063;28;20408;-73
2021/04/11 07:09:25;;;;;;;7.60;2.80;;;3.90;96.50;;;;;;5029406;28;20041;-73
2021/04/11 07:12:09;;;;;;;8.45;2.50;;;4.10;95.80;;;;;;5044798;28;20060;-73
2021/04/11 07:15:13;;;;;;;6.37;2.13;;;4.20;95.30;;;;;;5039594;28;20124;-74
2021/04/11 07:18:20;;;;;;;6.07;2.20;;;4.10;95.60;;;;;;5040142;28;21809;-74
2021/04/11 07:21:04;;;;;;;5.60;2.43;;;4.30;94.70;;;;;;5007451;28;20060;-74
2021/04/11 07:24:01;;;;;;;5.43;1.93;;;4.20;95.10;;;;;;5044582;28;20045;-73
2021/04/11 07:27:00;;;;;;;5.77;2.60;;;4.40;94.20;;;;;;5044580;28;20315;-74
2021/04/11 07:29:34;;;;;;;7.83;2.63;;;4.40;94.40;;;;;;5035465;28;20039;-74
2021/04/11 07:32:03;;;;;;;9.50;2.17;;;4.40;94.60;;;;;;5038060;28;20052;-74
2021/04/11 07:34:38;;;;;;;6.60;1.40;;;4.30;94.60;;;;;;5036424;28;20107;-73
2021/04/11 07:37:19;;;;;;;8.43;2.00;;;4.30;94.60;;;;;;5022069;28;20041;-72
2021/04/11 07:39:57;;;;;;;6.67;2.00;;;4.40;94.30;;;;;;5025617;28;20054;-73
2021/04/11 07:43:00;;;;;;;7.87;2.27;;;4.40;94.10;;;;;;5031051;28;20041;-73
2021/04/11 07:45:42;;;;;;;5.70;1.90;;;4.40;94.20;;;;;;5044273;28;20067;-73
2021/04/11 07:48:32;;;;;;;10.27;2.37;;;4.40;94.40;;;;;;5042255;28;20087;-73
2021/04/11 07:51:29;;;;;;;6.90;2.33;;;4.40;94.60;;;;;;5022069;28;20064;-73
2021/04/11 07:54:02;;;;;;;6.27;1.93;;;4.50;94.00;;;;;;5043722;28;20041;-74
2021/04/11 07:56:37;;;;;;;5.87;2.37;;;4.50;94.00;;;;;;5043352;28;20041;-74
2021/04/11 07:59:28;;;;;;;8.47;2.37;;;4.60;93.40;;;;;;5025705;28;20065;-74
2021/04/11 08:02:29;;;;;;;8.73;2.70;;;4.60;92.80;;;;;;5037668;28;20037;-73
2021/04/11 08:05:26;;;;;;;10.45;2.90;;;4.70;92.30;;;;;;4986415;28;20049;-73
2021/04/11 08:08:27;;;;;;;7.13;2.30;;;4.60;92.70;;;;;;5041237;28;20273;-74
2021/04/11 08:11:31;;;;;;;11.38;3.45;;;4.50;93.30;;;;;;5042613;28;20047;-74
2021/04/11 08:14:22;;;;;;;6.30;2.17;;;4.50;93.40;;;;;;5041176;28;20131;-74
2021/04/11 08:17:24;;;;;;;6.73;2.30;;;4.60;92.70;;;;;;5023346;28;20061;-74
2021/04/11 08:20:02;;;;;;;6.40;2.33;;;4.60;92.20;;;;;;5026943;28;20485;-74
2021/04/11 08:23:14;;;;;;;6.77;2.30;;;4.60;92.20;;;;;;5041532;28;20041;-74
2021/04/11 08:26:03;;;;;;;8.43;2.17;;;4.60;92.70;;;;;;5039841;28;20738;-74
2021/04/11 08:29:06;;;;;;;7.83;2.33;;;4.70;92.50;;;;;;5033083;28;20043;-74
2021/04/11 08:31:53;;;;;;;6.70;2.07;;;4.70;92.80;;;;;;5043224;28;20087;-74
2021/04/11 08:34:24;;;;;;;3.73;1.63;;;4.70;92.80;;;;;;5042883;28;20037;-74
2021/04/11 08:37:01;;;;;;;9.80;2.17;;;4.80;92.50;;;;;;5035525;28;20055;-74
2021/04/11 08:39:49;;;;;;;6.90;1.93;;;4.90;91.90;;;;;;5040196;28;20049;-74
2021/04/11 08:42:24;;;;;;;5.47;1.77;;;4.90;92.20;;;;;;5035947;28;20102;-74
2021/04/11 08:45:08;;;;;;;6.33;2.10;;;4.90;91.80;;;;;;5010499;28;20552;-74
2021/04/11 08:47:50;;;;;;;6.73;2.20;;;4.90;91.10;;;;;;5039021;28;20045;-74
2021/04/11 08:50:21;;;;;;;8.03;2.37;;;5.10;91.10;;;;;;5044839;28;20298;-74
2021/04/11 08:53:06;;;;;;;6.60;2.13;;;5.10;91.00;;;;;;5032668;28;20045;-73
2021/04/11 08:55:38;;;;;;;7.00;2.90;;;5.10;91.20;;;;;;5021306;28;20563;-74
2021/04/11 08:58:32;;;;;;;6.93;2.20;;;5.00;91.50;;;;;;5039355;28;20042;-74
2021/04/11 09:01:32;;;;;;;6.80;2.00;;;5.10;91.30;;;;;;5040741;28;20041;-74
2021/04/11 09:04:25;;;;;;;6.87;2.50;;;5.00;91.50;;;;;;5040008;28;20046;-74
2021/04/11 09:07:16;;;;;;;6.10;2.90;;;5.00;91.70;;;;;;5024002;28;20045;-73
2021/04/11 09:10:11;;;;;;;6.93;2.13;;;5.10;90.60;;;;;;5037474;28;20083;-74
2021/04/11 09:12:43;;;;;;;6.03;2.57;;;5.10;90.40;;;;;;5037250;28;20048;-74
2021/04/11 09:15:12;;;;;;;8.23;3.10;;;5.20;91.00;;;;;;5037250;28;20045;-74
2021/04/11 09:17:44;;;;;;;5.67;2.53;;;5.00;91.00;;;;;;5045888;28;20137;-74
2021/04/11 09:20:38;;;;;;;7.17;2.40;;;5.10;90.90;;;;;;5040005;28;20052;-74
2021/04/11 09:23:28;;;;;;;8.80;2.53;;;5.00;91.30;;;;;;5043960;28;20045;-74
2021/04/11 09:26:15;;;;;;;5.93;2.22;;;5.10;90.80;;;;;;5039767;28;20127;-74
2021/04/11 09:29:11;;;;;;;6.67;2.57;;;5.10;90.70;;;;;;5034412;28;20055;-74
2021/04/11 09:32:02;;;;;;;7.03;2.07;;;5.20;89.40;;;;;;5036346;28;20103;-74
2021/04/11 09:34:46;;;;;;;7.72;2.58;;;5.00;90.40;;;;;;5035044;28;20125;-74
2021/04/11 09:37:35;;;;;;;4.57;2.07;;;5.10;90.50;;;;;;5029935;28;20526;-74
2021/04/11 09:40:10;;;;;;;8.23;2.30;;;5.20;90.60;;;;;;5035861;28;20051;-74
2021/04/11 09:42:42;;;;;;;6.80;2.50;;;5.30;90.10;;;;;;5030987;28;20568;-74
2021/04/11 09:45:23;;;;;;;7.80;2.23;;;5.40;90.70;;;;;;5038945;28;20040;-74
2021/04/11 09:48:06;;;;;;;6.07;2.00;;;5.50;90.80;;;;;;5023832;28;20063;-73
2021/04/11 09:50:49;;;;;;;6.93;2.20;;;5.80;89.90;;;;;;5005476;28;20060;-75
2021/04/11 09:53:33;;;;;;;6.20;2.33;;;5.80;89.20;;;;;;5021226;28;20048;-75
2021/04/11 09:56:26;;;;;;;5.00;2.10;;;5.80;88.20;;;;;;5036784;28;20041;-74
2021/04/11 09:59:17;;;;;;;8.40;2.03;;;5.70;88.90;;;;;;5040579;28;20033;-74
2021/04/11 10:02:01;;;;;;;5.13;2.00;;;5.60;88.50;;;;;;5039570;28;20043;-74
2021/04/11 10:04:55;;;;;;;5.43;2.27;;;5.50;89.80;;;;;;5021340;28;20057;-74
2021/04/11 10:07:52;;;;;;;5.13;2.00;;;5.60;89.90;;;;;;5024341;28;20128;-74
2021/04/11 10:10:40;;;;;;;7.20;2.67;;;5.50;90.00;;;;;;5028371;28;20048;-75
2021/04/11 10:13:09;;;;;;;9.30;2.70;;;5.60;87.80;;;;;;5041119;28;20056;-74
2021/04/11 10:15:43;;;;;;;7.17;2.60;;;5.50;89.00;;;;;;5024381;28;20147;-74
2021/04/11 10:18:16;;;;;;;8.10;2.50;;;5.40;90.20;;;;;;5025994;28;20131;-74
2021/04/11 10:21:00;;;;;;;5.70;2.40;;;5.40;90.40;;;;;;5040267;28;20048;-74
2021/04/11 10:23:42;;;;;;;7.83;2.63;;;5.40;91.00;;;;;;5005417;28;20408;-74
2021/04/11 10:26:32;;;;;;;8.77;2.70;;;5.50;91.00;;;;;;5006763;28;20132;-74
2021/04/11 10:29:15;;;;;;;8.90;2.57;;;5.70;90.70;;;;;;4993725;28;20182;-74
2021/04/11 10:32:05;;;;;;;8.33;2.77;;;5.70;91.00;;;;;;5040833;28;20025;-74
2021/04/11 10:34:47;;;;;;;7.72;2.53;;;5.80;88.60;;;;;;5010345;28;20057;-74
2021/04/11 10:37:17;;;;;;;7.80;2.30;;;5.90;86.30;;;;;;5038498;28;20341;-75
2021/04/11 10:39:43;;;;;;;6.63;2.80;;;5.70;87.60;;;;;;5039806;28;20045;-74
2021/04/11 10:42:29;;;;;;;6.00;2.27;;;5.80;87.00;;;;;;5022691;28;20522;-75
2021/04/11 10:45:23;;;;;;;7.03;2.30;;;5.70;87.30;;;;;;5040157;28;20033;-74
2021/04/11 10:48:09;;;;;;;10.27;2.60;;;5.80;87.40;;;;;;5006487;28;20081;-74
2021/04/11 10:51:06;;;;;;;9.60;2.37;;;5.90;88.50;;;;;;4999832;28;20057;-74
2021/04/11 10:53:45;;;;;;;5.27;2.47;;;6.00;85.30;;;;;;5014896;28;20419;-73
2021/04/11 10:56:37;;;;;;;5.83;2.67;;;6.10;84.30;;;;;;5039470;28;20037;-73
2021/04/11 10:59:44;;;;;;;5.33;2.30;;;6.00;86.60;;;;;;5036994;28;20044;-73
2021/04/11 11:02:50;;;;;;;6.30;2.17;;;6.00;85.70;;;;;;4943760;28;20561;-73
2021/04/11 11:05:34;;;;;;;4.43;2.20;;;6.10;85.50;;;;;;4935958;28;20051;-73
2021/04/11 11:08:33;;;;;;;4.80;2.37;;;6.10;85.40;;;;;;5009401;28;20049;-73
2021/04/11 11:11:48;;;;;;;5.63;2.40;;;6.10;84.70;;;;;;5039907;28;20036;-74
2021/04/11 11:14:28;;;;;;;7.17;1.97;;;6.00;86.50;;;;;;4963916;28;20046;-73
2021/04/11 11:17:06;;;;;;;7.50;2.80;;;6.00;86.50;;;;;;4965221;28;20051;-73
2021/04/11 11:19:58;;;;;;;7.30;2.27;;;5.90;86.90;;;;;;5019279;28;20049;-73
2021/04/11 11:22:49;;;;;;;5.67;1.90;;;5.90;87.30;;;;;;5042589;28;20041;-74
2021/04/11 11:25:52;;;;;;;5.93;2.00;;;5.80;87.50;;;;;;5037321;28;20315;-73
2021/04/11 11:28:45;;;;;;;4.73;1.53;;;5.70;89.00;;;;;;5034169;28;21533;-74
2021/04/11 11:31:41;;;;;;;5.80;2.10;;;5.60;90.20;;;;;;5026347;28;20041;-73
2021/04/11 11:34:37;;;;;;;5.47;2.20;;;5.60;91.20;;;;;;5030609;28;20040;-74
2021/04/11 11:37:03;;;;;;;6.60;1.83;;;5.60;90.40;;;;;;5039129;28;20045;-74
2021/04/11 11:39:47;;;;;;;8.30;2.40;;;5.60;91.00;;;;;;5018130;28;20094;-74
2021/04/11 11:42:38;;;;;;;4.20;1.40;;;5.70;91.50;;;;;;5025728;28;20061;-73
2021/04/11 11:45:27;;;;;;;5.38;1.73;;;6.00;91.50;;;;;;5031470;28;20052;-73
2021/04/11 11:48:01;;;;;;;5.70;1.80;;;6.10;91.20;;;;;;5037795;28;20041;-74
2021/04/11 11:50:42;;;;;;;5.30;1.73;;;6.30;89.00;;;;;;5032136;28;20051;-74
2021/04/11 11:53:24;;;;;;;7.73;1.93;;;6.50;89.80;;;;;;5033459;28;20130;-74
2021/04/11 11:56:15;;;;;;;5.27;1.60;;;6.60;88.60;;;;;;5034056;28;20041;-74
2021/04/11 11:59:02;;;;;;;5.80;2.10;;;6.60;88.80;;;;;;4986343;28;20041;-74
2021/04/11 12:01:49;;;;;;;5.30;2.03;;;6.70;89.20;;;;;;5024828;28;20141;-74
2021/04/11 12:04:43;;;;;;;5.43;1.37;;;6.70;88.50;;;;;;5024669;28;20454;-74
2021/04/11 12:07:17;;;;;;;4.90;1.70;;;6.70;87.20;;;;;;5037489;28;20045;-74
2021/04/11 12:09:56;;;;;;;5.47;1.83;;;6.50;87.10;;;;;;5037396;28;20523;-74
2021/04/11 12:12:30;;;;;;;4.63;1.53;;;6.50;88.80;;;;;;5032717;28;20129;-74
2021/04/11 12:15:24;;;;;;;5.17;1.90;;;6.50;89.40;;;;;;5038620;28;20446;-74
2021/04/11 12:18:23;;;;;;;3.67;1.50;;;6.80;87.50;;;;;;5033385;28;20037;-74
2021/04/11 12:21:05;;;;;;;3.83;1.23;;;6.90;85.60;;;;;;5029937;28;20137;-74
2021/04/11 12:24:02;;;;;;;3.77;1.33;;;6.80;84.40;;;;;;5037261;28;20120;-74
2021/04/11 12:26:32;;;;;;;4.90;1.13;;;6.50;85.10;;;;;;5022768;28;20053;-74
2021/04/11 12:29:14;;;;;;;3.10;0.90;;;6.20;85.70;;;;;;5002583;28;20037;-74
2021/04/11 12:31:45;;;;;;;3.10;1.20;;;6.30;85.20;;;;;;5013196;28;20041;-74
2021/04/11 12:34:24;;;;;;;4.43;1.00;;;6.20;86.50;;;;;;5010547;28;20061;-74
2021/04/11 12:37:15;;;;;;;5.90;1.50;;;6.30;86.50;;;;;;5019562;28;20049;-74
2021/04/11 12:39:41;;;;;;;7.63;1.63;;;6.30;85.70;;;;;;5020080;28;20136;-74
2021/04/11 12:42:23;;;;;;;7.47;1.40;;;6.20;86.70;;;;;;5035672;28;20045;-74
2021/04/11 12:45:07;;;;;;;4.10;1.20;;;6.10;85.80;;;;;;5035224;28;20041;-74
2021/04/11 12:48:02;;;;;;;3.47;1.00;;;6.00;85.30;;;;;;5015039;28;20037;-74
2021/04/11 12:50:35;;;;;;;4.70;1.37;;;5.90;86.50;;;;;;5034959;28;20041;-74
2021/04/11 12:53:19;;;;;;;8.37;1.60;;;5.90;86.60;;;;;;5033113;28;20065;-74
2021/04/11 12:55:57;;;;;;;5.70;1.53;;;6.00;86.80;;;;;;5033989;28;20080;-74
2021/04/11 12:58:37;;;;;;;6.40;1.90;;;6.20;84.90;;;;;;5030821;28;20249;-74
2021/04/11 13:01:12;;;;;;;5.83;1.37;;;6.20;86.50;;;;;;5037570;28;20119;-74
2021/04/11 13:03:48;;;;;;;5.13;1.00;;;6.30;86.40;;;;;;5002352;28;20565;-74
2021/04/11 13:06:28;;;;;;;5.47;1.27;;;6.40;84.70;;;;;;5019443;28;20037;-74
2021/04/11 13:09:29;;;;;;;4.67;0.83;;;6.40;83.90;;;;;;5020207;28;20076;-73
2021/04/11 13:12:09;;;;;;;3.97;1.57;;;6.50;83.90;;;;;;4976543;28;20062;-73
2021/04/11 13:14:59;;;;;;;5.18;1.20;;;6.60;82.70;;;;;;5013591;28;20084;-74
2021/04/11 13:18:03;;;;;;;6.28;1.45;;;6.70;80.20;;;;;;5018986;28;20042;-74
2021/04/11 13:20:55;;;;;;;3.87;0.87;;;6.80;81.30;;;;;;5020300;28;20041;-75
2021/04/11 13:23:25;;;;;;;3.63;0.80;;;7.10;79.40;;;;;;5020394;28;20116;-76
2021/04/11 13:26:15;;;;;;;2.47;0.97;;;7.20;77.80;;;;;;5037954;28;20120;-75
2021/04/11 13:29:06;;;;;;;5.70;1.10;;;7.20;79.00;;;;;;5009267;28;20132;-75
2021/04/11 13:31:50;;;;;;;3.37;0.80;;;7.20;79.00;;;;;;5002276;28;20206;-75
2021/04/11 13:34:43;;;;;;;4.27;1.00;;;7.10;75.70;;;;;;5021819;28;20033;-75
2021/04/11 13:37:13;;;;;;;5.10;1.63;;;7.10;76.60;;;;;;5019495;28;20095;-75
2021/04/11 13:39:41;;;;;;;4.93;1.07;;;7.00;80.10;;;;;;5022908;28;20037;-75
2021/04/11 13:42:34;;;;;;;4.90;1.20;;;7.10;80.80;;;;;;5016570;28;20044;-75
2021/04/11 13:45:39;;;;;;;5.90;2.40;;;7.30;82.10;;;;;;5020909;28;20124;-75
2021/04/11 13:48:20;;;;;;;3.80;1.20;;;7.80;82.20;;;;;;5001159;28;20049;-76
2021/04/11 13:51:11;;;;;;;2.70;0.80;;;8.40;80.20;;;;;;5038584;28;20057;-75
2021/04/11 13:54:13;;;;;;;1.87;0.50;;;8.70;74.60;;;;;;5023726;28;20041;-73
2021/04/11 13:57:17;;;;;;;1.47;0.50;;;8.50;68.60;;;;;;5012023;28;20378;-74
2021/04/11 13:59:58;;;;;;;2.93;0.50;;;8.10;67.80;;;;;;5004004;28;20107;-73
2021/04/11 14:02:36;;;;;;;2.22;0.60;;;7.80;69.10;;;;;;5020057;28;20038;-76
2021/04/11 14:05:29;;;;;;;3.50;0.60;;;7.50;71.90;;;;;;5037113;28;20053;-75